sensor_id;sensor_type;location;lat;lon;timestamp;temperature;humidity
53599;DHT22;39485;45.702;11.364;2023-05-07T00:01:27;16.70;99.90
53599;DHT22;39485;45.702;11.364;2023-05-07T00:03:53;16.70;99.90
53599;DHT22;39485;45.702;11.364;2023-05-07T00:06:18;16.70;99.90
53599;DHT22;39485;45.702;11.364;2023-05-07T00:08:44;16.70;99.90
53599;DHT22;39485;45.702;11.364;2023-05-07T00:11:10;16.70;99.90
53599;DHT22;39485;45.702;11.364;2023-05-07T00:13:36;16.70;99.90
53599;DHT22;39485;45.702;11.364;2023-05-07T00:16:04;16.70;99.90
53599;DHT22;39485;45.702;11.364;2023-05-07T00:18:30;16.70;99.90
53599;DHT22;39485;45.702;11.364;2023-05-07T00:20:56;16.70;99.90
53599;DHT22;39485;45.702;11.364;2023-05-07T00:23:22;16.70;99.90
53599;DHT22;39485;45.702;11.364;2023-05-07T00:25:48;16.70;99.90
53599;DHT22;39485;45.702;11.364;2023-05-07T00:28:14;16.80;99.90
53599;DHT22;39485;45.702;11.364;2023-05-07T00:30:40;16.80;99.90
53599;DHT22;39485;45.702;11.364;2023-05-07T00:33:05;16.80;99.90
53599;DHT22;39485;45.702;11.364;2023-05-07T00:35:31;16.70;99.90
53599;DHT22;39485;45.702;11.364;2023-05-07T00:37:57;16.80;99.90
53599;DHT22;39485;45.702;11.364;2023-05-07T00:40:22;16.80;99.90
53599;DHT22;39485;45.702;11.364;2023-05-07T00:42:48;16.80;99.90
53599;DHT22;39485;45.702;11.364;2023-05-07T00:45:14;16.70;99.90
53599;DHT22;39485;45.702;11.364;2023-05-07T00:47:40;16.70;99.90
53599;DHT22;39485;45.702;11.364;2023-05-07T00:50:08;16.70;99.90
53599;DHT22;39485;45.702;11.364;2023-05-07T00:52:35;16.70;99.90
53599;DHT22;39485;45.702;11.364;2023-05-07T00:55:05;16.70;99.90
53599;DHT22;39485;45.702;11.364;2023-05-07T00:57:36;16.60;99.90
53599;DHT22;39485;45.702;11.364;2023-05-07T01:00:04;16.60;99.90
53599;DHT22;39485;45.702;11.364;2023-05-07T01:02:30;16.50;99.90
53599;DHT22;39485;45.702;11.364;2023-05-07T01:04:56;16.50;99.90
53599;DHT22;39485;45.702;11.364;2023-05-07T01:07:22;16.50;99.90
53599;DHT22;39485;45.702;11.364;2023-05-07T01:09:49;16.40;99.90
53599;DHT22;39485;45.702;11.364;2023-05-07T01:12:15;16.40;99.90
53599;DHT22;39485;45.702;11.364;2023-05-07T01:14:41;16.40;99.90
53599;DHT22;39485;45.702;11.364;2023-05-07T01:17:07;16.40;99.90
53599;DHT22;39485;45.702;11.364;2023-05-07T01:19:33;16.30;99.90
53599;DHT22;39485;45.702;11.364;2023-05-07T01:22:08;16.30;99.90
53599;DHT22;39485;45.702;11.364;2023-05-07T01:24:35;16.30;99.90
53599;DHT22;39485;45.702;11.364;2023-05-07T01:27:01;16.30;99.90
53599;DHT22;39485;45.702;11.364;2023-05-07T01:29:28;16.30;99.90
53599;DHT22;39485;45.702;11.364;2023-05-07T01:31:56;16.30;99.90
53599;DHT22;39485;45.702;11.364;2023-05-07T01:34:22;16.30;99.90
53599;DHT22;39485;45.702;11.364;2023-05-07T01:36:49;16.30;99.90
53599;DHT22;39485;45.702;11.364;2023-05-07T01:39:15;16.20;99.90
53599;DHT22;39485;45.702;11.364;2023-05-07T01:41:43;16.30;99.90
53599;DHT22;39485;45.702;11.364;2023-05-07T01:44:10;16.30;99.90
53599;DHT22;39485;45.702;11.364;2023-05-07T01:46:37;16.30;99.90
53599;DHT22;39485;45.702;11.364;2023-05-07T01:49:03;16.30;99.90
53599;DHT22;39485;45.702;11.364;2023-05-07T01:51:29;16.30;99.90
53599;DHT22;39485;45.702;11.364;2023-05-07T01:53:55;16.30;99.90
53599;DHT22;39485;45.702;11.364;2023-05-07T01:56:21;16.30;99.90
53599;DHT22;39485;45.702;11.364;2023-05-07T01:58:47;16.30;99.90
53599;DHT22;39485;45.702;11.364;2023-05-07T02:01:14;16.20;99.90
53599;DHT22;39485;45.702;11.364;2023-05-07T02:03:40;16.20;99.90
53599;DHT22;39485;45.702;11.364;2023-05-07T02:06:05;16.20;99.90
53599;DHT22;39485;45.702;11.364;2023-05-07T02:08:31;16.20;99.90
53599;DHT22;39485;45.702;11.364;2023-05-07T02:10:57;16.20;99.90
53599;DHT22;39485;45.702;11.364;2023-05-07T02:13:22;16.20;99.90
53599;DHT22;39485;45.702;11.364;2023-05-07T02:15:49;16.20;99.90
53599;DHT22;39485;45.702;11.364;2023-05-07T02:18:16;16.10;99.90
53599;DHT22;39485;45.702;11.364;2023-05-07T02:20:42;16.10;99.90
53599;DHT22;39485;45.702;11.364;2023-05-07T02:23:08;16.10;99.90
53599;DHT22;39485;45.702;11.364;2023-05-07T02:25:33;16.10;99.90
53599;DHT22;39485;45.702;11.364;2023-05-07T02:27:59;16.10;99.90
53599;DHT22;39485;45.702;11.364;2023-05-07T02:30:25;16.10;99.90
53599;DHT22;39485;45.702;11.364;2023-05-07T02:32:51;16.10;99.90
53599;DHT22;39485;45.702;11.364;2023-05-07T02:35:17;16.10;99.90
53599;DHT22;39485;45.702;11.364;2023-05-07T02:37:43;16.10;99.90
53599;DHT22;39485;45.702;11.364;2023-05-07T02:40:09;16.10;99.90
53599;DHT22;39485;45.702;11.364;2023-05-07T02:42:35;16.10;99.90
53599;DHT22;39485;45.702;11.364;2023-05-07T02:45:00;16.10;99.90
53599;DHT22;39485;45.702;11.364;2023-05-07T02:47:26;16.20;99.90
53599;DHT22;39485;45.702;11.364;2023-05-07T02:49:54;16.20;99.90
53599;DHT22;39485;45.702;11.364;2023-05-07T02:52:20;16.10;99.90
53599;DHT22;39485;45.702;11.364;2023-05-07T02:54:46;16.10;99.90
53599;DHT22;39485;45.702;11.364;2023-05-07T02:57:11;16.10;99.90
53599;DHT22;39485;45.702;11.364;2023-05-07T02:59:37;16.10;99.90
53599;DHT22;39485;45.702;11.364;2023-05-07T03:02:02;16.10;99.90
53599;DHT22;39485;45.702;11.364;2023-05-07T03:04:28;16.10;99.90
53599;DHT22;39485;45.702;11.364;2023-05-07T03:06:54;16.10;99.90
53599;DHT22;39485;45.702;11.364;2023-05-07T03:09:20;16.00;99.90
53599;DHT22;39485;45.702;11.364;2023-05-07T03:11:46;16.00;99.90
53599;DHT22;39485;45.702;11.364;2023-05-07T03:14:11;16.00;99.90
53599;DHT22;39485;45.702;11.364;2023-05-07T03:16:38;16.00;99.90
53599;DHT22;39485;45.702;11.364;2023-05-07T03:19:03;16.00;99.90
53599;DHT22;39485;45.702;11.364;2023-05-07T03:21:29;16.00;99.90
53599;DHT22;39485;45.702;11.364;2023-05-07T03:23:56;16.00;99.90
53599;DHT22;39485;45.702;11.364;2023-05-07T03:26:21;16.00;99.90
53599;DHT22;39485;45.702;11.364;2023-05-07T03:28:47;16.00;99.90
53599;DHT22;39485;45.702;11.364;2023-05-07T03:31:13;16.00;99.90
53599;DHT22;39485;45.702;11.364;2023-05-07T03:33:55;15.90;99.90
53599;DHT22;39485;45.702;11.364;2023-05-07T03:36:23;15.90;99.90
53599;DHT22;39485;45.702;11.364;2023-05-07T03:38:49;15.90;99.90
53599;DHT22;39485;45.702;11.364;2023-05-07T03:41:15;15.90;99.90
53599;DHT22;39485;45.702;11.364;2023-05-07T03:43:41;15.90;99.90
53599;DHT22;39485;45.702;11.364;2023-05-07T03:46:06;15.80;99.90
53599;DHT22;39485;45.702;11.364;2023-05-07T03:48:32;15.80;99.90
53599;DHT22;39485;45.702;11.364;2023-05-07T03:50:58;15.80;99.90
53599;DHT22;39485;45.702;11.364;2023-05-07T03:53:24;15.80;99.90
53599;DHT22;39485;45.702;11.364;2023-05-07T03:55:50;15.80;99.90
53599;DHT22;39485;45.702;11.364;2023-05-07T03:58:16;15.80;99.90
53599;DHT22;39485;45.702;11.364;2023-05-07T04:00:42;15.80;99.90
53599;DHT22;39485;45.702;11.364;2023-05-07T04:03:08;15.80;99.90
53599;DHT22;39485;45.702;11.364;2023-05-07T04:05:33;15.80;99.90
53599;DHT22;39485;45.702;11.364;2023-05-07T04:08:00;15.80;99.90
53599;DHT22;39485;45.702;11.364;2023-05-07T04:10:25;15.80;99.90
53599;DHT22;39485;45.702;11.364;2023-05-07T04:12:51;15.80;99.90
53599;DHT22;39485;45.702;11.364;2023-05-07T04:15:17;15.70;99.90
53599;DHT22;39485;45.702;11.364;2023-05-07T04:17:42;15.70;99.90
53599;DHT22;39485;45.702;11.364;2023-05-07T04:20:15;15.70;99.90
53599;DHT22;39485;45.702;11.364;2023-05-07T04:22:41;15.70;99.90
53599;DHT22;39485;45.702;11.364;2023-05-07T04:25:07;15.70;99.90
53599;DHT22;39485;45.702;11.364;2023-05-07T04:27:34;15.70;99.90
53599;DHT22;39485;45.702;11.364;2023-05-07T04:30:01;15.70;99.90
53599;DHT22;39485;45.702;11.364;2023-05-07T04:32:27;15.70;99.90
53599;DHT22;39485;45.702;11.364;2023-05-07T04:34:55;15.70;99.90
53599;DHT22;39485;45.702;11.364;2023-05-07T04:37:21;15.80;99.90
53599;DHT22;39485;45.702;11.364;2023-05-07T04:39:47;15.80;99.90
53599;DHT22;39485;45.702;11.364;2023-05-07T04:42:19;15.80;99.90
53599;DHT22;39485;45.702;11.364;2023-05-07T04:44:45;15.80;99.90
53599;DHT22;39485;45.702;11.364;2023-05-07T04:47:11;15.80;99.90
53599;DHT22;39485;45.702;11.364;2023-05-07T04:49:38;15.80;99.90
53599;DHT22;39485;45.702;11.364;2023-05-07T04:52:04;15.80;99.90
53599;DHT22;39485;45.702;11.364;2023-05-07T04:54:29;15.90;99.90
53599;DHT22;39485;45.702;11.364;2023-05-07T04:56:55;15.90;99.90
53599;DHT22;39485;45.702;11.364;2023-05-07T04:59:21;15.90;99.90
53599;DHT22;39485;45.702;11.364;2023-05-07T05:01:47;16.00;99.90
53599;DHT22;39485;45.702;11.364;2023-05-07T05:04:13;15.90;99.90
53599;DHT22;39485;45.702;11.364;2023-05-07T05:06:39;16.00;99.90
53599;DHT22;39485;45.702;11.364;2023-05-07T05:09:04;16.00;99.90
53599;DHT22;39485;45.702;11.364;2023-05-07T05:11:31;16.10;99.90
53599;DHT22;39485;45.702;11.364;2023-05-07T05:13:56;16.10;99.90
53599;DHT22;39485;45.702;11.364;2023-05-07T05:16:22;16.20;99.90
53599;DHT22;39485;45.702;11.364;2023-05-07T05:18:48;16.20;99.90
53599;DHT22;39485;45.702;11.364;2023-05-07T05:21:14;16.20;99.90
53599;DHT22;39485;45.702;11.364;2023-05-07T05:23:39;16.30;99.90
53599;DHT22;39485;45.702;11.364;2023-05-07T05:26:05;16.30;99.90
53599;DHT22;39485;45.702;11.364;2023-05-07T05:28:31;16.30;99.90
53599;DHT22;39485;45.702;11.364;2023-05-07T05:30:57;16.40;99.90
53599;DHT22;39485;45.702;11.364;2023-05-07T05:33:22;16.40;99.90
53599;DHT22;39485;45.702;11.364;2023-05-07T05:35:49;16.40;99.90
53599;DHT22;39485;45.702;11.364;2023-05-07T05:38:14;16.40;99.90
53599;DHT22;39485;45.702;11.364;2023-05-07T05:40:40;16.40;99.90
53599;DHT22;39485;45.702;11.364;2023-05-07T05:43:07;16.40;99.90
53599;DHT22;39485;45.702;11.364;2023-05-07T05:45:33;16.40;99.90
53599;DHT22;39485;45.702;11.364;2023-05-07T05:47:58;16.50;99.90
53599;DHT22;39485;45.702;11.364;2023-05-07T05:50:24;16.50;99.90
53599;DHT22;39485;45.702;11.364;2023-05-07T05:52:50;16.50;99.90
53599;DHT22;39485;45.702;11.364;2023-05-07T05:55:16;16.60;99.90
53599;DHT22;39485;45.702;11.364;2023-05-07T05:57:42;16.60;99.90
53599;DHT22;39485;45.702;11.364;2023-05-07T06:00:08;16.60;99.90
53599;DHT22;39485;45.702;11.364;2023-05-07T06:02:34;16.70;99.90
53599;DHT22;39485;45.702;11.364;2023-05-07T06:04:59;16.70;99.90
53599;DHT22;39485;45.702;11.364;2023-05-07T06:07:25;16.80;99.90
53599;DHT22;39485;45.702;11.364;2023-05-07T06:09:51;16.90;99.90
53599;DHT22;39485;45.702;11.364;2023-05-07T06:12:16;17.00;99.90
53599;DHT22;39485;45.702;11.364;2023-05-07T06:14:45;17.00;99.90
53599;DHT22;39485;45.702;11.364;2023-05-07T06:17:11;17.10;99.90
53599;DHT22;39485;45.702;11.364;2023-05-07T06:19:36;17.20;99.90
53599;DHT22;39485;45.702;11.364;2023-05-07T06:22:02;17.40;99.90
53599;DHT22;39485;45.702;11.364;2023-05-07T06:24:28;17.50;99.90
53599;DHT22;39485;45.702;11.364;2023-05-07T06:26:54;17.80;99.90
53599;DHT22;39485;45.702;11.364;2023-05-07T06:29:20;18.00;99.90
53599;DHT22;39485;45.702;11.364;2023-05-07T06:31:46;18.20;99.90
53599;DHT22;39485;45.702;11.364;2023-05-07T06:34:12;18.40;99.90
53599;DHT22;39485;45.702;11.364;2023-05-07T06:36:40;18.70;99.90
53599;DHT22;39485;45.702;11.364;2023-05-07T06:39:06;18.90;99.90
53599;DHT22;39485;45.702;11.364;2023-05-07T06:41:32;19.00;99.90
53599;DHT22;39485;45.702;11.364;2023-05-07T06:43:57;19.20;99.90
53599;DHT22;39485;45.702;11.364;2023-05-07T06:46:23;19.40;99.90
53599;DHT22;39485;45.702;11.364;2023-05-07T06:48:49;19.60;99.90
53599;DHT22;39485;45.702;11.364;2023-05-07T06:51:15;19.70;99.90
53599;DHT22;39485;45.702;11.364;2023-05-07T06:53:40;19.90;99.90
53599;DHT22;39485;45.702;11.364;2023-05-07T06:56:06;20.00;99.90
53599;DHT22;39485;45.702;11.364;2023-05-07T06:58:32;20.00;99.90
53599;DHT22;39485;45.702;11.364;2023-05-07T07:00:58;20.00;99.90
53599;DHT22;39485;45.702;11.364;2023-05-07T07:03:24;20.00;99.90
53599;DHT22;39485;45.702;11.364;2023-05-07T07:05:53;20.00;99.90
53599;DHT22;39485;45.702;11.364;2023-05-07T07:08:18;20.10;99.90
53599;DHT22;39485;45.702;11.364;2023-05-07T07:10:46;20.10;99.90
53599;DHT22;39485;45.702;11.364;2023-05-07T07:13:12;20.10;99.90
53599;DHT22;39485;45.702;11.364;2023-05-07T07:15:38;20.20;99.90
53599;DHT22;39485;45.702;11.364;2023-05-07T07:18:04;20.20;99.90
53599;DHT22;39485;45.702;11.364;2023-05-07T07:20:30;20.30;99.90
53599;DHT22;39485;45.702;11.364;2023-05-07T07:22:55;20.30;99.90
53599;DHT22;39485;45.702;11.364;2023-05-07T07:25:21;20.30;99.90
53599;DHT22;39485;45.702;11.364;2023-05-07T07:27:47;20.40;99.90
53599;DHT22;39485;45.702;11.364;2023-05-07T07:30:13;20.40;99.90
53599;DHT22;39485;45.702;11.364;2023-05-07T07:32:38;20.40;99.90
53599;DHT22;39485;45.702;11.364;2023-05-07T07:35:04;20.40;99.90
53599;DHT22;39485;45.702;11.364;2023-05-07T07:37:30;20.50;99.90
53599;DHT22;39485;45.702;11.364;2023-05-07T07:39:56;20.50;99.90
53599;DHT22;39485;45.702;11.364;2023-05-07T07:42:22;20.50;99.90
53599;DHT22;39485;45.702;11.364;2023-05-07T07:44:48;20.50;99.90
53599;DHT22;39485;45.702;11.364;2023-05-07T07:47:22;20.50;99.90
53599;DHT22;39485;45.702;11.364;2023-05-07T07:49:48;20.40;99.90
53599;DHT22;39485;45.702;11.364;2023-05-07T07:52:13;20.40;99.90
53599;DHT22;39485;45.702;11.364;2023-05-07T07:54:39;20.30;99.90
53599;DHT22;39485;45.702;11.364;2023-05-07T07:57:05;20.30;99.90
53599;DHT22;39485;45.702;11.364;2023-05-07T07:59:36;20.30;99.90
53599;DHT22;39485;45.702;11.364;2023-05-07T08:02:02;20.30;99.90
53599;DHT22;39485;45.702;11.364;2023-05-07T08:04:28;20.30;99.90
53599;DHT22;39485;45.702;11.364;2023-05-07T08:06:53;20.20;99.90
53599;DHT22;39485;45.702;11.364;2023-05-07T08:09:23;20.30;99.90
53599;DHT22;39485;45.702;11.364;2023-05-07T08:11:48;20.30;99.90
53599;DHT22;39485;45.702;11.364;2023-05-07T08:14:14;20.30;99.90
53599;DHT22;39485;45.702;11.364;2023-05-07T08:16:41;20.30;99.90
53599;DHT22;39485;45.702;11.364;2023-05-07T08:19:07;20.30;99.90
53599;DHT22;39485;45.702;11.364;2023-05-07T08:21:32;20.40;99.90
53599;DHT22;39485;45.702;11.364;2023-05-07T08:23:58;20.50;99.90
53599;DHT22;39485;45.702;11.364;2023-05-07T08:26:24;20.60;99.90
53599;DHT22;39485;45.702;11.364;2023-05-07T08:28:49;20.70;99.90
53599;DHT22;39485;45.702;11.364;2023-05-07T08:31:15;20.80;99.90
53599;DHT22;39485;45.702;11.364;2023-05-07T08:33:41;20.90;99.90
53599;DHT22;39485;45.702;11.364;2023-05-07T08:36:06;21.00;99.90
53599;DHT22;39485;45.702;11.364;2023-05-07T08:38:32;21.00;99.90
53599;DHT22;39485;45.702;11.364;2023-05-07T08:40:58;21.10;99.90
53599;DHT22;39485;45.702;11.364;2023-05-07T08:43:26;21.10;99.90
53599;DHT22;39485;45.702;11.364;2023-05-07T08:45:54;21.20;99.90
53599;DHT22;39485;45.702;11.364;2023-05-07T08:48:25;21.20;99.90
53599;DHT22;39485;45.702;11.364;2023-05-07T08:50:51;21.30;99.90
53599;DHT22;39485;45.702;11.364;2023-05-07T08:53:17;21.40;99.90
53599;DHT22;39485;45.702;11.364;2023-05-07T08:55:43;21.50;99.90
53599;DHT22;39485;45.702;11.364;2023-05-07T08:58:08;21.70;99.90
53599;DHT22;39485;45.702;11.364;2023-05-07T09:00:37;21.80;99.90
53599;DHT22;39485;45.702;11.364;2023-05-07T09:03:03;21.90;99.90
53599;DHT22;39485;45.702;11.364;2023-05-07T09:05:29;22.00;99.90
53599;DHT22;39485;45.702;11.364;2023-05-07T09:07:55;22.10;99.90
53599;DHT22;39485;45.702;11.364;2023-05-07T09:10:21;22.10;99.90
53599;DHT22;39485;45.702;11.364;2023-05-07T09:12:47;22.20;99.90
53599;DHT22;39485;45.702;11.364;2023-05-07T09:15:13;22.40;99.90
53599;DHT22;39485;45.702;11.364;2023-05-07T09:17:39;22.50;99.90
53599;DHT22;39485;45.702;11.364;2023-05-07T09:20:08;22.60;99.90
53599;DHT22;39485;45.702;11.364;2023-05-07T09:22:36;22.80;99.90
53599;DHT22;39485;45.702;11.364;2023-05-07T09:25:02;22.90;99.90
53599;DHT22;39485;45.702;11.364;2023-05-07T09:27:28;23.00;99.90
53599;DHT22;39485;45.702;11.364;2023-05-07T09:29:54;23.10;99.90
53599;DHT22;39485;45.702;11.364;2023-05-07T09:32:19;23.20;99.90
53599;DHT22;39485;45.702;11.364;2023-05-07T09:34:45;23.30;99.90
53599;DHT22;39485;45.702;11.364;2023-05-07T09:37:12;23.20;99.90
53599;DHT22;39485;45.702;11.364;2023-05-07T09:39:43;23.20;99.90
53599;DHT22;39485;45.702;11.364;2023-05-07T09:42:09;23.20;99.90
53599;DHT22;39485;45.702;11.364;2023-05-07T09:44:35;23.10;99.90
53599;DHT22;39485;45.702;11.364;2023-05-07T09:47:04;23.10;99.90
53599;DHT22;39485;45.702;11.364;2023-05-07T09:49:36;23.00;99.90
53599;DHT22;39485;45.702;11.364;2023-05-07T09:52:04;22.90;99.90
53599;DHT22;39485;45.702;11.364;2023-05-07T09:54:32;22.80;99.90
53599;DHT22;39485;45.702;11.364;2023-05-07T09:56:59;22.70;99.90
53599;DHT22;39485;45.702;11.364;2023-05-07T09:59:28;22.70;99.90
53599;DHT22;39485;45.702;11.364;2023-05-07T10:01:57;22.50;99.90
53599;DHT22;39485;45.702;11.364;2023-05-07T10:04:27;22.50;99.90
53599;DHT22;39485;45.702;11.364;2023-05-07T10:06:54;22.40;99.90
53599;DHT22;39485;45.702;11.364;2023-05-07T10:09:20;22.30;99.90
53599;DHT22;39485;45.702;11.364;2023-05-07T10:11:49;22.20;99.90
53599;DHT22;39485;45.702;11.364;2023-05-07T10:14:15;22.00;99.90
53599;DHT22;39485;45.702;11.364;2023-05-07T10:16:41;21.80;99.90
53599;DHT22;39485;45.702;11.364;2023-05-07T10:19:09;21.60;99.90
53599;DHT22;39485;45.702;11.364;2023-05-07T10:21:39;21.20;99.90
53599;DHT22;39485;45.702;11.364;2023-05-07T10:26:35;20.50;99.90
53599;DHT22;39485;45.702;11.364;2023-05-07T10:29:14;20.10;99.90
53599;DHT22;39485;45.702;11.364;2023-05-07T10:34:45;19.30;99.90
53599;DHT22;39485;45.702;11.364;2023-05-07T10:37:15;19.00;99.90
53599;DHT22;39485;45.702;11.364;2023-05-07T10:39:41;18.70;99.90
53599;DHT22;39485;45.702;11.364;2023-05-07T10:42:14;18.50;99.90
53599;DHT22;39485;45.702;11.364;2023-05-07T10:44:40;18.40;99.90
53599;DHT22;39485;45.702;11.364;2023-05-07T10:47:10;18.30;99.90
53599;DHT22;39485;45.702;11.364;2023-05-07T10:52:13;18.30;99.90
53599;DHT22;39485;45.702;11.364;2023-05-07T10:54:40;18.30;99.90
53599;DHT22;39485;45.702;11.364;2023-05-07T10:59:59;18.20;99.90
53599;DHT22;39485;45.702;11.364;2023-05-07T11:05:32;18.30;99.90
53599;DHT22;39485;45.702;11.364;2023-05-07T11:07:59;18.30;99.90
53599;DHT22;39485;45.702;11.364;2023-05-07T11:10:48;18.40;99.90
53599;DHT22;39485;45.702;11.364;2023-05-07T11:13:17;18.50;99.90
53599;DHT22;39485;45.702;11.364;2023-05-07T11:18:11;18.80;99.90
53599;DHT22;39485;45.702;11.364;2023-05-07T11:20:54;18.90;99.90
53599;DHT22;39485;45.702;11.364;2023-05-07T11:26:12;19.20;99.90
53599;DHT22;39485;45.702;11.364;2023-05-07T11:28:42;19.40;99.90
53599;DHT22;39485;45.702;11.364;2023-05-07T11:31:13;19.50;99.90
53599;DHT22;39485;45.702;11.364;2023-05-07T11:33:47;19.70;99.90
53599;DHT22;39485;45.702;11.364;2023-05-07T11:36:13;19.90;99.90
53599;DHT22;39485;45.702;11.364;2023-05-07T11:38:39;20.10;99.90
53599;DHT22;39485;45.702;11.364;2023-05-07T11:41:07;20.30;99.90
53599;DHT22;39485;45.702;11.364;2023-05-07T11:43:34;20.50;99.90
53599;DHT22;39485;45.702;11.364;2023-05-07T11:46:11;20.70;99.90
53599;DHT22;39485;45.702;11.364;2023-05-07T11:48:38;20.80;99.90
53599;DHT22;39485;45.702;11.364;2023-05-07T11:51:05;21.00;99.90
53599;DHT22;39485;45.702;11.364;2023-05-07T11:53:42;21.20;99.90
53599;DHT22;39485;45.702;11.364;2023-05-07T11:56:12;21.30;99.90
53599;DHT22;39485;45.702;11.364;2023-05-07T11:58:38;21.40;99.90
53599;DHT22;39485;45.702;11.364;2023-05-07T12:01:04;21.50;99.90
53599;DHT22;39485;45.702;11.364;2023-05-07T12:03:29;21.60;99.90
53599;DHT22;39485;45.702;11.364;2023-05-07T12:05:55;21.70;99.90
53599;DHT22;39485;45.702;11.364;2023-05-07T12:08:21;21.80;99.90
53599;DHT22;39485;45.702;11.364;2023-05-07T12:10:49;21.90;99.90
53599;DHT22;39485;45.702;11.364;2023-05-07T12:13:22;22.00;99.90
53599;DHT22;39485;45.702;11.364;2023-05-07T12:15:52;22.10;99.90
53599;DHT22;39485;45.702;11.364;2023-05-07T12:18:18;22.20;99.90
53599;DHT22;39485;45.702;11.364;2023-05-07T12:20:45;22.30;99.90
53599;DHT22;39485;45.702;11.364;2023-05-07T12:23:12;22.30;99.90
53599;DHT22;39485;45.702;11.364;2023-05-07T12:25:39;22.30;99.90
53599;DHT22;39485;45.702;11.364;2023-05-07T12:28:07;22.20;99.90
53599;DHT22;39485;45.702;11.364;2023-05-07T12:30:37;22.20;99.90
53599;DHT22;39485;45.702;11.364;2023-05-07T12:33:04;22.10;99.90
53599;DHT22;39485;45.702;11.364;2023-05-07T12:35:31;22.10;99.90
53599;DHT22;39485;45.702;11.364;2023-05-07T12:37:58;22.00;99.90
53599;DHT22;39485;45.702;11.364;2023-05-07T12:43:03;21.90;99.90
53599;DHT22;39485;45.702;11.364;2023-05-07T12:45:28;21.80;99.90
53599;DHT22;39485;45.702;11.364;2023-05-07T12:47:54;21.80;99.90
53599;DHT22;39485;45.702;11.364;2023-05-07T12:50:20;21.80;99.90
53599;DHT22;39485;45.702;11.364;2023-05-07T12:52:48;21.80;99.90
53599;DHT22;39485;45.702;11.364;2023-05-07T12:55:15;21.70;99.90
53599;DHT22;39485;45.702;11.364;2023-05-07T12:57:43;21.70;99.90
53599;DHT22;39485;45.702;11.364;2023-05-07T13:00:09;21.60;99.90
53599;DHT22;39485;45.702;11.364;2023-05-07T13:02:44;21.50;99.90
53599;DHT22;39485;45.702;11.364;2023-05-07T13:05:13;21.40;99.90
53599;DHT22;39485;45.702;11.364;2023-05-07T13:07:39;21.30;99.90
53599;DHT22;39485;45.702;11.364;2023-05-07T13:10:06;21.30;99.90
53599;DHT22;39485;45.702;11.364;2023-05-07T13:12:32;21.30;99.90
53599;DHT22;39485;45.702;11.364;2023-05-07T13:14:58;21.30;99.90
53599;DHT22;39485;45.702;11.364;2023-05-07T13:17:24;21.20;99.90
53599;DHT22;39485;45.702;11.364;2023-05-07T13:19:50;21.20;99.90
53599;DHT22;39485;45.702;11.364;2023-05-07T13:22:18;21.20;99.90
53599;DHT22;39485;45.702;11.364;2023-05-07T13:24:44;21.20;99.90
53599;DHT22;39485;45.702;11.364;2023-05-07T13:27:12;21.10;99.90
53599;DHT22;39485;45.702;11.364;2023-05-07T13:29:38;21.00;99.90
53599;DHT22;39485;45.702;11.364;2023-05-07T13:32:07;20.90;99.90
53599;DHT22;39485;45.702;11.364;2023-05-07T13:34:35;20.80;99.90
53599;DHT22;39485;45.702;11.364;2023-05-07T13:37:05;20.80;99.90
53599;DHT22;39485;45.702;11.364;2023-05-07T13:39:35;20.70;99.90
53599;DHT22;39485;45.702;11.364;2023-05-07T13:42:01;20.60;99.90
53599;DHT22;39485;45.702;11.364;2023-05-07T13:44:27;20.50;99.90
53599;DHT22;39485;45.702;11.364;2023-05-07T13:46:55;20.40;99.90
53599;DHT22;39485;45.702;11.364;2023-05-07T13:49:24;20.40;99.90
53599;DHT22;39485;45.702;11.364;2023-05-07T13:51:50;20.30;99.90
53599;DHT22;39485;45.702;11.364;2023-05-07T13:54:18;20.20;99.90
53599;DHT22;39485;45.702;11.364;2023-05-07T13:56:44;20.10;99.90
53599;DHT22;39485;45.702;11.364;2023-05-07T13:59:10;19.90;99.90
53599;DHT22;39485;45.702;11.364;2023-05-07T14:01:35;19.90;99.90
53599;DHT22;39485;45.702;11.364;2023-05-07T14:04:01;19.80;99.90
53599;DHT22;39485;45.702;11.364;2023-05-07T14:06:30;19.60;99.90
53599;DHT22;39485;45.702;11.364;2023-05-07T14:08:55;19.50;99.90
53599;DHT22;39485;45.702;11.364;2023-05-07T14:11:23;19.40;99.90
53599;DHT22;39485;45.702;11.364;2023-05-07T14:13:49;19.20;99.90
53599;DHT22;39485;45.702;11.364;2023-05-07T14:16:14;19.10;99.90
53599;DHT22;39485;45.702;11.364;2023-05-07T14:18:40;18.90;99.90
53599;DHT22;39485;45.702;11.364;2023-05-07T14:21:06;18.80;99.90
53599;DHT22;39485;45.702;11.364;2023-05-07T14:23:32;18.70;99.90
53599;DHT22;39485;45.702;11.364;2023-05-07T14:25:58;18.60;99.90
53599;DHT22;39485;45.702;11.364;2023-05-07T14:28:24;18.50;99.90
53599;DHT22;39485;45.702;11.364;2023-05-07T14:30:49;18.40;99.90
53599;DHT22;39485;45.702;11.364;2023-05-07T14:33:15;18.40;99.90
53599;DHT22;39485;45.702;11.364;2023-05-07T14:35:41;18.30;99.90
53599;DHT22;39485;45.702;11.364;2023-05-07T14:38:07;18.30;99.90
53599;DHT22;39485;45.702;11.364;2023-05-07T14:40:32;18.20;99.90
53599;DHT22;39485;45.702;11.364;2023-05-07T14:42:58;18.20;99.90
53599;DHT22;39485;45.702;11.364;2023-05-07T14:45:23;18.10;99.90
53599;DHT22;39485;45.702;11.364;2023-05-07T14:47:49;18.00;99.90
53599;DHT22;39485;45.702;11.364;2023-05-07T14:50:15;18.00;99.90
53599;DHT22;39485;45.702;11.364;2023-05-07T14:52:41;17.90;99.90
53599;DHT22;39485;45.702;11.364;2023-05-07T14:55:07;17.90;99.90
53599;DHT22;39485;45.702;11.364;2023-05-07T14:57:33;17.80;99.90
53599;DHT22;39485;45.702;11.364;2023-05-07T15:00:01;17.80;99.90
53599;DHT22;39485;45.702;11.364;2023-05-07T15:02:27;17.70;99.90
53599;DHT22;39485;45.702;11.364;2023-05-07T15:04:52;17.70;99.90
53599;DHT22;39485;45.702;11.364;2023-05-07T15:07:18;17.60;99.90
53599;DHT22;39485;45.702;11.364;2023-05-07T15:09:44;17.60;99.90
53599;DHT22;39485;45.702;11.364;2023-05-07T15:12:10;17.60;99.90
53599;DHT22;39485;45.702;11.364;2023-05-07T15:14:37;17.50;99.90
53599;DHT22;39485;45.702;11.364;2023-05-07T15:17:03;17.50;99.90
53599;DHT22;39485;45.702;11.364;2023-05-07T15:19:29;17.40;99.90
53599;DHT22;39485;45.702;11.364;2023-05-07T15:21:58;17.30;99.90
53599;DHT22;39485;45.702;11.364;2023-05-07T15:24:30;17.30;99.90
53599;DHT22;39485;45.702;11.364;2023-05-07T15:26:56;17.20;99.90
53599;DHT22;39485;45.702;11.364;2023-05-07T15:29:23;17.30;99.90
53599;DHT22;39485;45.702;11.364;2023-05-07T15:31:49;17.30;99.90
53599;DHT22;39485;45.702;11.364;2023-05-07T15:34:15;17.30;99.90